Time;durP1;ratioP1;P1;durP2;ratioP2;P2;SDS_P1;SDS_P2;PMS_P1;PMS_P2;Temp;Humidity;BMP_temperature;BMP_pressure;BME280_temperature;BME280_humidity;BME280_pressure;Samples;Min_cycle;Max_cycle;Signal;HPM_P1;HPM_P2
2022/05/24 00:00:29;;;;;;;14.01;7.61;;;;;;;;;;370205;144;859177;-73
2022/05/24 00:01:44;;;;;;;17.08;7.49;;;;;;;;;;370306;143;857641;-73
2022/05/24 00:03:00;;;;;;;11.94;7.69;;;;;;;;;;368622;144;857207;-73
2022/05/24 00:04:17;;;;;;;18.03;7.96;;;;;;;;;;371205;143;856308;-73
2022/05/24 00:05:33;;;;;;;19.23;7.96;;;;;;;;;;371521;143;857170;-73
2022/05/24 00:06:48;;;;;;;18.64;8.30;;;;;;;;;;369208;143;859061;-73
2022/05/24 00:08:03;;;;;;;13.67;7.96;;;;;;;;;;370421;144;857247;-74
2022/05/24 00:09:19;;;;;;;16.86;8.98;;;;;;;;;;371045;143;857122;-74
2022/05/24 04:17:35;;;;;;;39.84;19.04;;;;;;;;;;366350;143;856425;-57
2022/05/24 04:18:56;;;;;;;43.04;20.15;;;;;;;;;;352552;151;856094;-58
2022/05/24 04:20:03;;;;;;;;;;;;;;;;;;367691;143;855551;-58
2022/05/24 04:21:24;;;;;;;43.71;19.63;;;;;;;;;;364668;144;856310;-58
2022/05/24 04:22:36;;;;;;;45.05;19.93;;;;;;;;;;367420;145;857325;-58
2022/05/24 04:23:48;;;;;;;47.06;22.41;;;;;;;;;;346431;155;858072;-58
2022/05/24 04:24:49;;;;;;;41.87;21.70;;;;;;;;;;362249;147;858870;-58
2022/05/24 04:25:53;;;;;;;44.21;20.82;;;;;;;;;;362426;147;858244;-59
2022/05/24 04:26:55;;;;;;;47.61;21.83;;;;;;;;;;362998;145;857230;-60
2022/05/24 04:27:57;;;;;;;37.63;20.14;;;;;;;;;;362363;147;857645;-60
2022/05/24 04:28:58;;;;;;;32.94;16.17;;;;;;;;;;362014;147;864706;-60
2022/05/24 04:30:00;;;;;;;35.63;18.05;;;;;;;;;;361245;147;856302;-60
2022/05/24 04:31:02;;;;;;;38.30;19.34;;;;;;;;;;362026;148;857826;-62
2022/05/24 04:32:03;;;;;;;42.24;20.51;;;;;;;;;;361173;147;857463;-59
2022/05/24 04:33:05;;;;;;;47.68;19.54;;;;;;;;;;360929;148;857774;-56
2022/05/24 04:34:06;;;;;;;42.31;19.08;;;;;;;;;;363623;146;857776;-57
2022/05/24 04:35:08;;;;;;;36.37;17.98;;;;;;;;;;362040;148;857419;-57
2022/05/24 04:36:10;;;;;;;37.42;18.46;;;;;;;;;;362048;146;857301;-56
2022/05/24 04:37:12;;;;;;;42.59;18.81;;;;;;;;;;363410;146;857391;-56
2022/05/24 04:38:14;;;;;;;36.99;19.36;;;;;;;;;;362177;145;864881;-57
2022/05/24 04:39:16;;;;;;;34.69;18.65;;;;;;;;;;362306;145;858146;-57
2022/05/24 04:40:18;;;;;;;39.41;20.00;;;;;;;;;;361463;146;857710;-57
2022/05/24 04:42:39;;;;;;;39.40;18.23;;;;;;;;;;361528;145;865030;-57
2022/05/24 04:43:41;;;;;;;36.27;17.21;;;;;;;;;;353178;149;866454;-58
2022/05/24 04:44:43;;;;;;;33.69;17.04;;;;;;;;;;362045;145;865162;-58
2022/05/24 04:45:44;;;;;;;38.65;17.34;;;;;;;;;;362101;145;865138;-57
2022/05/24 04:48:06;;;;;;;36.49;16.62;;;;;;;;;;361106;145;859341;-55
2022/05/24 04:49:08;;;;;;;38.59;18.11;;;;;;;;;;362215;145;857310;-55
2022/05/24 04:50:11;;;;;;;32.05;16.73;;;;;;;;;;362972;145;858941;-55
2022/05/24 04:51:12;;;;;;;37.62;17.88;;;;;;;;;;360896;146;858075;-58
2022/05/24 04:52:14;;;;;;;39.60;17.58;;;;;;;;;;361858;146;857136;-58
2022/05/24 04:53:16;;;;;;;35.93;17.11;;;;;;;;;;360600;145;858692;-57
2022/05/24 04:54:17;;;;;;;34.19;17.14;;;;;;;;;;362141;145;864880;-57
2022/05/24 04:55:19;;;;;;;37.73;18.39;;;;;;;;;;361303;145;866544;-58
2022/05/24 04:56:20;;;;;;;34.47;17.06;;;;;;;;;;361781;145;857558;-56
2022/05/24 04:57:22;;;;;;;40.19;17.98;;;;;;;;;;361544;145;867039;-58
2022/05/24 04:58:24;;;;;;;33.34;17.27;;;;;;;;;;355151;148;858241;-58
2022/05/24 04:59:26;;;;;;;34.37;17.07;;;;;;;;;;354761;148;865008;-56
2022/05/24 05:00:28;;;;;;;30.53;15.15;;;;;;;;;;361553;145;858951;-56
2022/05/24 05:01:29;;;;;;;37.16;17.28;;;;;;;;;;361924;145;857068;-58
2022/05/24 05:02:31;;;;;;;34.75;16.25;;;;;;;;;;362442;145;857193;-57
2022/05/24 05:03:33;;;;;;;30.69;15.37;;;;;;;;;;362941;145;859747;-57
2022/05/24 05:04:34;;;;;;;31.83;16.36;;;;;;;;;;362670;145;865427;-60
2022/05/24 05:05:36;;;;;;;36.74;17.09;;;;;;;;;;361765;145;864947;-57
2022/05/24 05:06:44;;;;;;;30.30;16.10;;;;;;;;;;362117;145;866667;-58
2022/05/24 05:07:45;;;;;;;33.61;16.37;;;;;;;;;;362188;145;857909;-58
2022/05/24 05:08:47;;;;;;;31.79;15.93;;;;;;;;;;361684;146;857611;-58
2022/05/24 05:09:50;;;;;;;27.06;14.58;;;;;;;;;;361803;147;857809;-57
2022/05/24 05:10:53;;;;;;;32.48;15.94;;;;;;;;;;361062;146;857118;-57
2022/05/24 05:11:54;;;;;;;30.29;15.02;;;;;;;;;;361515;145;858731;-58
2022/05/24 05:12:56;;;;;;;31.12;14.94;;;;;;;;;;361158;146;857119;-58
2022/05/24 05:13:58;;;;;;;25.00;12.93;;;;;;;;;;362193;145;865021;-58
2022/05/24 05:14:59;;;;;;;31.04;14.97;;;;;;;;;;361777;145;867913;-59
2022/05/24 05:16:01;;;;;;;28.10;14.29;;;;;;;;;;362972;145;859267;-59
2022/05/24 05:17:02;;;;;;;34.03;16.21;;;;;;;;;;362304;145;858200;-59
2022/05/24 05:18:06;;;;;;;28.01;13.64;;;;;;;;;;361967;145;857332;-59
2022/05/24 05:19:09;;;;;;;27.53;13.59;;;;;;;;;;360821;145;865999;-58
2022/05/24 05:20:11;;;;;;;27.01;13.59;;;;;;;;;;361243;145;857310;-59
2022/05/24 05:21:13;;;;;;;29.69;14.82;;;;;;;;;;361342;145;857767;-58
2022/05/24 05:22:16;;;;;;;30.78;14.66;;;;;;;;;;361417;146;859646;-58
2022/05/24 05:23:17;;;;;;;29.01;14.57;;;;;;;;;;361834;145;857205;-58
2022/05/24 05:24:19;;;;;;;27.51;13.51;;;;;;;;;;363134;145;858176;-58
2022/05/24 05:25:21;;;;;;;24.42;12.97;;;;;;;;;;361902;145;863829;-58
2022/05/24 05:26:23;;;;;;;28.04;12.86;;;;;;;;;;363863;145;856789;-57
2022/05/24 05:27:24;;;;;;;23.22;12.02;;;;;;;;;;361851;145;866291;-60
2022/05/24 05:28:26;;;;;;;30.02;13.85;;;;;;;;;;362362;145;857334;-60
2022/05/24 05:32:08;;;;;;;28.21;11.86;;;;;;;;;;361552;145;857200;-58
2022/05/24 05:33:10;;;;;;;26.21;12.45;;;;;;;;;;362124;145;859869;-58
2022/05/24 05:34:12;;;;;;;24.99;12.41;;;;;;;;;;362392;145;857449;-57
2022/05/24 05:35:14;;;;;;;21.49;11.38;;;;;;;;;;360950;146;857210;-59
2022/05/24 05:36:16;;;;;;;23.97;11.89;;;;;;;;;;363079;145;866055;-57
2022/05/24 05:37:17;;;;;;;22.87;11.45;;;;;;;;;;361972;145;857176;-58
2022/05/24 05:38:19;;;;;;;25.06;11.24;;;;;;;;;;361989;145;857548;-58
2022/05/24 05:39:21;;;;;;;22.08;11.37;;;;;;;;;;362086;146;857217;-58
2022/05/24 05:40:23;;;;;;;24.81;12.34;;;;;;;;;;361720;145;857634;-57
2022/05/24 05:41:25;;;;;;;25.01;11.62;;;;;;;;;;362586;145;866484;-59
2022/05/24 05:42:27;;;;;;;22.43;11.61;;;;;;;;;;361235;145;858608;-59
2022/05/24 05:43:29;;;;;;;24.35;11.76;;;;;;;;;;361313;145;865542;-59
2022/05/24 05:44:30;;;;;;;22.08;11.41;;;;;;;;;;361818;146;864634;-57
2022/05/24 05:45:32;;;;;;;24.68;11.58;;;;;;;;;;363149;145;857123;-57
2022/05/24 05:46:34;;;;;;;21.75;11.31;;;;;;;;;;362106;146;857213;-58
2022/05/24 05:47:35;;;;;;;26.67;10.91;;;;;;;;;;361996;146;857305;-59
2022/05/24 05:48:37;;;;;;;25.06;11.75;;;;;;;;;;363874;146;861613;-58
2022/05/24 05:49:41;;;;;;;30.44;11.71;;;;;;;;;;361873;145;858834;-58
2022/05/24 05:50:42;;;;;;;21.49;10.75;;;;;;;;;;360813;145;866491;-59
2022/05/24 05:51:43;;;;;;;26.56;10.61;;;;;;;;;;362096;145;857707;-59
2022/05/24 05:52:45;;;;;;;22.77;10.24;;;;;;;;;;361720;145;865336;-59
2022/05/24 05:53:47;;;;;;;22.71;10.30;;;;;;;;;;360969;146;858240;-59
2022/05/24 05:54:48;;;;;;;21.52;10.69;;;;;;;;;;359417;146;865248;-58
2022/05/24 05:55:50;;;;;;;17.80;8.49;;;;;;;;;;360518;145;857200;-58
2022/05/24 05:56:52;;;;;;;20.84;9.04;;;;;;;;;;361993;145;856191;-58
2022/05/24 05:57:53;;;;;;;17.89;8.51;;;;;;;;;;360611;145;856954;-58
2022/05/24 05:58:55;;;;;;;16.58;8.03;;;;;;;;;;360647;145;858949;-58
2022/05/24 05:59:56;;;;;;;18.27;8.91;;;;;;;;;;360266;146;866015;-58
2022/05/24 06:01:00;;;;;;;15.73;7.55;;;;;;;;;;360450;145;856280;-58
2022/05/24 06:02:04;;;;;;;15.39;7.38;;;;;;;;;;360607;145;857158;-58
2022/05/24 06:03:05;;;;;;;13.20;7.06;;;;;;;;;;363567;145;858991;-57
2022/05/24 06:04:07;;;;;;;13.79;6.70;;;;;;;;;;361540;146;865146;-59
2022/05/24 06:05:10;;;;;;;15.64;7.15;;;;;;;;;;361607;146;859435;-58
2022/05/24 06:06:15;;;;;;;13.35;7.11;;;;;;;;;;346808;152;864044;-56
2022/05/24 06:07:16;;;;;;;21.59;7.91;;;;;;;;;;362263;146;858207;-59
2022/05/24 06:08:18;;;;;;;20.89;8.33;;;;;;;;;;361950;146;857097;-58
2022/05/24 06:09:20;;;;;;;19.04;8.67;;;;;;;;;;362296;145;859711;-58
2022/05/24 06:10:21;;;;;;;13.65;7.52;;;;;;;;;;361355;148;860220;-57
2022/05/24 06:11:23;;;;;;;17.26;7.69;;;;;;;;;;361750;145;859322;-58
2022/05/24 06:12:25;;;;;;;16.62;7.88;;;;;;;;;;360634;148;857534;-58
2022/05/24 06:13:27;;;;;;;18.92;8.24;;;;;;;;;;360896;146;865024;-58
2022/05/24 06:14:29;;;;;;;20.83;8.14;;;;;;;;;;360709;146;857147;-58
2022/05/24 06:15:32;;;;;;;15.77;7.69;;;;;;;;;;353653;149;857672;-58
2022/05/24 06:16:33;;;;;;;15.17;7.79;;;;;;;;;;354623;146;858171;-58
2022/05/24 06:17:37;;;;;;;20.25;8.29;;;;;;;;;;361693;146;857285;-57
2022/05/24 06:18:38;;;;;;;19.84;7.46;;;;;;;;;;362439;145;857654;-57
2022/05/24 06:19:40;;;;;;;15.21;6.96;;;;;;;;;;360622;146;859073;-58
2022/05/24 06:20:41;;;;;;;17.26;6.96;;;;;;;;;;361884;146;857365;-58
2022/05/24 06:21:43;;;;;;;16.78;8.12;;;;;;;;;;362390;146;857356;-60
2022/05/24 06:22:46;;;;;;;20.53;8.44;;;;;;;;;;361972;146;857273;-57
2022/05/24 06:23:49;;;;;;;14.66;6.73;;;;;;;;;;361321;146;865007;-60
2022/05/24 06:24:50;;;;;;;13.01;6.31;;;;;;;;;;360929;144;865300;-57
2022/05/24 06:25:52;;;;;;;15.55;7.04;;;;;;;;;;362078;145;857759;-58
2022/05/24 06:26:54;;;;;;;15.96;6.44;;;;;;;;;;364385;145;866325;-58
2022/05/24 06:27:56;;;;;;;13.43;6.03;;;;;;;;;;360737;145;867038;-58
2022/05/24 06:28:57;;;;;;;11.88;5.18;;;;;;;;;;361814;145;858113;-58
2022/05/24 06:29:59;;;;;;;10.93;5.39;;;;;;;;;;361682;146;857706;-58
2022/05/24 06:31:01;;;;;;;10.83;4.99;;;;;;;;;;364638;145;859243;-58
2022/05/24 06:32:04;;;;;;;11.51;4.43;;;;;;;;;;361531;146;857965;-59
2022/05/24 06:33:06;;;;;;;11.10;4.74;;;;;;;;;;362277;145;857443;-58
2022/05/24 06:34:07;;;;;;;11.53;4.79;;;;;;;;;;362783;145;858234;-57
2022/05/24 06:35:09;;;;;;;10.84;4.59;;;;;;;;;;364681;145;865055;-58
2022/05/24 06:36:11;;;;;;;11.39;4.95;;;;;;;;;;359956;145;865486;-58
2022/05/24 06:37:13;;;;;;;12.98;5.44;;;;;;;;;;361712;145;857322;-59
2022/05/24 06:38:15;;;;;;;12.17;4.77;;;;;;;;;;362004;145;857152;-59
2022/05/24 06:39:17;;;;;;;11.75;4.98;;;;;;;;;;361517;145;857144;-59
2022/05/24 06:40:18;;;;;;;16.57;5.91;;;;;;;;;;361693;145;857201;-58
2022/05/24 06:41:20;;;;;;;13.30;5.35;;;;;;;;;;361913;145;864927;-58
2022/05/24 06:42:22;;;;;;;9.93;4.71;;;;;;;;;;355044;149;857360;-59
2022/05/24 06:43:23;;;;;;;14.16;5.14;;;;;;;;;;361683;145;857208;-59
2022/05/24 06:44:25;;;;;;;13.99;5.25;;;;;;;;;;363022;145;857289;-59
2022/05/24 06:45:26;;;;;;;10.79;4.51;;;;;;;;;;361386;145;857233;-59
2022/05/24 06:46:28;;;;;;;8.13;3.83;;;;;;;;;;361123;145;865023;-59
2022/05/24 06:47:30;;;;;;;9.52;2.90;;;;;;;;;;362434;145;857101;-60
2022/05/24 06:48:32;;;;;;;6.37;3.09;;;;;;;;;;363635;145;857185;-58
2022/05/24 06:49:36;;;;;;;8.13;2.59;;;;;;;;;;362751;145;857320;-59
2022/05/24 06:50:38;;;;;;;5.12;2.21;;;;;;;;;;361742;145;857376;-59
2022/05/24 06:51:39;;;;;;;6.56;1.98;;;;;;;;;;362314;146;857241;-59
2022/05/24 06:52:41;;;;;;;3.89;1.98;;;;;;;;;;363935;145;859179;-58
2022/05/24 06:53:43;;;;;;;2.59;1.77;;;;;;;;;;361898;146;859312;-59
2022/05/24 06:54:45;;;;;;;4.24;1.86;;;;;;;;;;363934;145;859709;-59
2022/05/24 06:55:47;;;;;;;3.92;1.89;;;;;;;;;;360662;145;857325;-58
2022/05/24 06:56:49;;;;;;;4.59;1.86;;;;;;;;;;364558;145;858547;-59
2022/05/24 06:57:50;;;;;;;3.68;1.58;;;;;;;;;;362518;145;864927;-59
2022/05/24 07:02:25;;;;;;;3.56;1.79;;;;;;;;;;364571;145;860917;-61
2022/05/24 07:02:36;;;;;;;3.96;1.34;;;;;;;;;;361882;145;857341;-61
2022/05/24 07:03:38;;;;;;;2.97;1.39;;;;;;;;;;361955;145;859320;-60
2022/05/24 07:04:40;;;;;;;2.85;1.49;;;;;;;;;;362076;145;857281;-58
2022/05/24 07:05:42;;;;;;;3.61;1.67;;;;;;;;;;364269;145;864754;-59
2022/05/24 07:06:44;;;;;;;5.07;2.29;;;;;;;;;;362618;146;867595;-58
2022/05/24 07:07:46;;;;;;;2.68;1.92;;;;;;;;;;359757;147;864880;-58
2022/05/24 07:08:48;;;;;;;5.04;2.16;;;;;;;;;;362676;145;857360;-58
2022/05/24 07:09:51;;;;;;;4.74;2.01;;;;;;;;;;365591;145;864740;-60
2022/05/24 07:10:53;;;;;;;4.37;2.11;;;;;;;;;;362175;145;858977;-58
2022/05/24 07:11:55;;;;;;;4.73;1.65;;;;;;;;;;362571;145;857376;-60
2022/05/24 07:13:10;;;;;;;4.04;1.75;;;;;;;;;;362262;145;857436;-58
2022/05/24 07:14:12;;;;;;;5.42;1.84;;;;;;;;;;360390;145;863748;-58
2022/05/24 07:15:13;;;;;;;3.15;1.70;;;;;;;;;;361533;145;858951;-58
2022/05/24 07:16:15;;;;;;;5.29;1.50;;;;;;;;;;362027;145;857843;-58
2022/05/24 07:17:17;;;;;;;2.61;1.66;;;;;;;;;;362156;145;865346;-61
2022/05/24 07:18:18;;;;;;;5.16;1.74;;;;;;;;;;362667;145;857305;-64
2022/05/24 07:19:20;;;;;;;4.26;1.97;;;;;;;;;;362701;145;864894;-60
2022/05/24 07:20:22;;;;;;;3.80;1.49;;;;;;;;;;361775;145;857676;-63
2022/05/24 07:21:24;;;;;;;3.24;1.36;;;;;;;;;;364303;145;863389;-58
2022/05/24 07:22:25;;;;;;;2.94;1.56;;;;;;;;;;361504;145;857291;-60
2022/05/24 07:23:27;;;;;;;4.18;1.55;;;;;;;;;;363034;145;857664;-63
2022/05/24 07:24:29;;;;;;;7.01;1.61;;;;;;;;;;362047;146;857277;-63
2022/05/24 07:25:31;;;;;;;3.73;1.48;;;;;;;;;;359839;144;857255;-60
2022/05/24 07:26:32;;;;;;;3.55;1.44;;;;;;;;;;362986;146;857160;-62
2022/05/24 07:27:34;;;;;;;2.82;1.51;;;;;;;;;;354088;149;857848;-60
2022/05/24 07:28:36;;;;;;;5.46;1.48;;;;;;;;;;354773;149;857348;-60
2022/05/24 07:29:37;;;;;;;2.97;1.29;;;;;;;;;;345627;153;864771;-59
2022/05/24 07:30:39;;;;;;;3.59;1.40;;;;;;;;;;362242;146;857258;-59
2022/05/24 07:31:40;;;;;;;2.82;1.11;;;;;;;;;;362289;145;866320;-58
2022/05/24 07:32:43;;;;;;;7.12;1.37;;;;;;;;;;361942;145;859337;-59
2022/05/24 07:33:44;;;;;;;3.98;1.67;;;;;;;;;;361848;145;859406;-57
2022/05/24 07:34:46;;;;;;;5.13;1.49;;;;;;;;;;362461;145;858723;-59
2022/05/24 07:35:47;;;;;;;4.79;1.93;;;;;;;;;;360946;145;867029;-61
2022/05/24 07:36:49;;;;;;;2.96;1.20;;;;;;;;;;361637;146;858375;-61
2022/05/24 07:37:50;;;;;;;2.64;1.30;;;;;;;;;;360445;145;864962;-61
2022/05/24 07:38:52;;;;;;;1.59;1.30;;;;;;;;;;360688;146;857340;-61
2022/05/24 07:45:48;;;;;;;2.89;1.40;;;;;;;;;;359938;146;857291;-62
2022/05/24 07:46:18;;;;;;;2.31;1.28;;;;;;;;;;363676;146;857267;-59
2022/05/24 07:47:20;;;;;;;3.07;1.37;;;;;;;;;;361626;146;859031;-59
2022/05/24 07:48:22;;;;;;;2.21;1.19;;;;;;;;;;359976;146;857431;-59
2022/05/24 07:49:24;;;;;;;3.46;1.27;;;;;;;;;;362706;145;858167;-60
2022/05/24 07:50:26;;;;;;;3.62;1.57;;;;;;;;;;363793;145;865157;-61
2022/05/24 07:51:28;;;;;;;4.72;1.37;;;;;;;;;;363027;145;859469;-61
2022/05/24 07:52:29;;;;;;;1.94;1.10;;;;;;;;;;364492;145;857190;-60
2022/05/24 07:53:31;;;;;;;2.91;1.26;;;;;;;;;;361961;145;864857;-59
2022/05/24 07:54:33;;;;;;;3.01;1.34;;;;;;;;;;362787;145;859062;-60
2022/05/24 07:55:34;;;;;;;2.95;1.26;;;;;;;;;;360994;145;866273;-58
2022/05/24 07:56:36;;;;;;;2.95;1.09;;;;;;;;;;360035;145;858231;-62
2022/05/24 07:57:38;;;;;;;4.34;1.34;;;;;;;;;;362746;145;859351;-61
2022/05/24 07:58:40;;;;;;;3.66;1.39;;;;;;;;;;361654;145;858044;-61
2022/05/24 07:59:43;;;;;;;5.21;1.41;;;;;;;;;;354897;149;857341;-60
2022/05/24 08:00:45;;;;;;;2.26;1.11;;;;;;;;;;361732;145;859288;-59
2022/05/24 08:01:47;;;;;;;1.94;1.14;;;;;;;;;;361447;146;864624;-59
2022/05/24 08:02:49;;;;;;;2.84;1.56;;;;;;;;;;360932;146;857289;-60
2022/05/24 08:03:51;;;;;;;2.07;1.32;;;;;;;;;;361916;145;857315;-61
2022/05/24 08:04:53;;;;;;;3.56;1.21;;;;;;;;;;362006;146;856578;-60
2022/05/24 08:05:55;;;;;;;4.06;1.24;;;;;;;;;;361449;146;864963;-58
2022/05/24 08:06:57;;;;;;;3.36;1.41;;;;;;;;;;361840;145;859159;-57
2022/05/24 08:07:58;;;;;;;1.70;1.28;;;;;;;;;;363179;146;864567;-58
2022/05/24 08:09:00;;;;;;;1.96;1.26;;;;;;;;;;360966;146;859471;-61
2022/05/24 08:10:02;;;;;;;3.01;1.28;;;;;;;;;;362531;146;858039;-63
2022/05/24 08:11:04;;;;;;;3.79;1.46;;;;;;;;;;362190;146;866453;-63
2022/05/24 08:12:06;;;;;;;2.73;1.22;;;;;;;;;;360740;146;864758;-64
2022/05/24 08:13:09;;;;;;;5.77;1.43;;;;;;;;;;355896;149;857547;-63
2022/05/24 08:14:11;;;;;;;2.63;1.52;;;;;;;;;;361713;145;857855;-63
2022/05/24 08:15:12;;;;;;;4.64;1.09;;;;;;;;;;353689;149;860381;-64
2022/05/24 08:16:14;;;;;;;2.53;1.38;;;;;;;;;;362461;145;857361;-63
2022/05/24 08:17:16;;;;;;;8.25;1.57;;;;;;;;;;362230;145;858574;-63
2022/05/24 08:18:18;;;;;;;2.91;1.37;;;;;;;;;;361017;145;857202;-62
2022/05/24 08:19:20;;;;;;;2.90;1.20;;;;;;;;;;363171;145;857412;-64
2022/05/24 08:20:21;;;;;;;2.76;1.36;;;;;;;;;;363649;145;857281;-62
2022/05/24 08:21:25;;;;;;;2.72;1.29;;;;;;;;;;360876;145;857438;-62
2022/05/24 08:22:27;;;;;;;2.54;1.35;;;;;;;;;;362722;145;857431;-65
2022/05/24 08:23:29;;;;;;;2.06;0.92;;;;;;;;;;361477;146;857916;-62
2022/05/24 08:24:30;;;;;;;3.01;1.20;;;;;;;;;;364257;145;860665;-61
2022/05/24 08:25:33;;;;;;;2.06;1.27;;;;;;;;;;361807;146;865873;-62
2022/05/24 08:26:36;;;;;;;5.23;1.75;;;;;;;;;;366372;143;865714;-60
2022/05/24 08:27:38;;;;;;;2.71;1.46;;;;;;;;;;364549;144;857373;-63
2022/05/24 08:28:41;;;;;;;6.11;1.61;;;;;;;;;;367828;143;859218;-62
2022/05/24 08:29:44;;;;;;;3.09;1.71;;;;;;;;;;369066;144;857249;-63
2022/05/24 08:30:46;;;;;;;4.56;1.67;;;;;;;;;;364930;144;859054;-61
2022/05/24 08:31:49;;;;;;;6.03;2.02;;;;;;;;;;366970;143;858970;-63
2022/05/24 08:32:50;;;;;;;4.75;1.41;;;;;;;;;;365551;143;857378;-65
2022/05/24 08:33:52;;;;;;;3.26;1.38;;;;;;;;;;364682;143;857288;-63
2022/05/24 08:34:54;;;;;;;3.16;1.43;;;;;;;;;;365829;143;856661;-63
2022/05/24 08:35:55;;;;;;;2.75;1.43;;;;;;;;;;365619;143;865386;-63
2022/05/24 08:36:57;;;;;;;2.24;1.19;;;;;;;;;;365965;143;857427;-64
2022/05/24 08:37:59;;;;;;;3.21;1.26;;;;;;;;;;366438;143;866724;-64
2022/05/24 08:39:01;;;;;;;2.70;1.30;;;;;;;;;;366426;143;859045;-61
2022/05/24 08:40:03;;;;;;;3.16;1.30;;;;;;;;;;366374;143;857204;-61
2022/05/24 08:41:06;;;;;;;2.79;1.19;;;;;;;;;;365339;143;857385;-61
2022/05/24 08:42:27;;;;;;;1.64;1.22;;;;;;;;;;364429;143;858503;-59
2022/05/24 08:43:40;;;;;;;4.89;1.39;;;;;;;;;;365730;144;857366;-61
2022/05/24 08:48:59;;;;;;;4.00;1.32;;;;;;;;;;366258;143;857244;-66
2022/05/24 08:50:01;;;;;;;1.62;1.23;;;;;;;;;;365228;143;864441;-65
2022/05/24 08:51:08;;;;;;;2.06;1.29;;;;;;;;;;360096;146;864209;-66
2022/05/24 08:52:09;;;;;;;2.38;1.53;;;;;;;;;;346649;151;857415;-65
2022/05/24 08:53:12;;;;;;;5.79;1.61;;;;;;;;;;351758;150;857422;-64
2022/05/24 08:54:15;;;;;;;2.52;1.37;;;;;;;;;;365536;143;860646;-64
2022/05/24 08:55:17;;;;;;;2.88;1.22;;;;;;;;;;366365;143;859344;-65
2022/05/24 08:56:21;;;;;;;1.70;1.18;;;;;;;;;;364551;143;864532;-62
2022/05/24 08:57:36;;;;;;;2.71;1.56;;;;;;;;;;365326;144;858214;-64
2022/05/24 08:58:40;;;;;;;2.89;1.66;;;;;;;;;;360630;146;859047;-60
2022/05/24 08:59:47;;;;;;;2.17;1.22;;;;;;;;;;359989;146;857259;-62
2022/05/24 09:00:50;;;;;;;2.08;1.42;;;;;;;;;;360781;146;857344;-62
2022/05/24 09:01:53;;;;;;;2.97;1.36;;;;;;;;;;360708;145;856802;-62
2022/05/24 09:02:55;;;;;;;3.86;1.31;;;;;;;;;;361002;146;857447;-62
2022/05/24 09:03:56;;;;;;;4.72;1.23;;;;;;;;;;360393;146;860714;-66
2022/05/24 09:04:58;;;;;;;5.76;1.47;;;;;;;;;;361223;146;859406;-66
2022/05/24 09:06:04;;;;;;;2.32;1.25;;;;;;;;;;360816;146;857270;-63
2022/05/24 09:07:07;;;;;;;3.23;1.48;;;;;;;;;;353924;148;856417;-64
2022/05/24 09:08:10;;;;;;;3.75;1.45;;;;;;;;;;350955;151;856961;-62
2022/05/24 09:09:30;;;;;;;3.72;1.33;;;;;;;;;;361799;146;863911;-64
2022/05/24 09:10:33;;;;;;;;;;;;;;;;;;364973;145;856238;-64
2022/05/24 09:11:39;;;;;;;4.70;1.43;;;;;;;;;;362493;145;856578;-64
2022/05/24 09:12:59;;;;;;;2.16;1.28;;;;;;;;;;365794;144;856345;-64
2022/05/24 09:14:01;;;;;;;;;;;;;;;;;;364261;146;855583;-65
2022/05/24 09:15:04;;;;;;;5.23;1.97;;;;;;;;;;360641;146;857913;-65
2022/05/24 09:16:08;;;;;;;4.85;1.28;;;;;;;;;;359735;147;857382;-65
2022/05/24 09:17:28;;;;;;;5.05;1.61;;;;;;;;;;354823;149;857479;-66
2022/05/24 09:18:38;;;;;;;4.32;1.39;;;;;;;;;;362132;146;857353;-64
2022/05/24 09:19:40;;;;;;;4.02;1.49;;;;;;;;;;362897;146;859016;-65
2022/05/24 09:20:42;;;;;;;3.09;1.50;;;;;;;;;;360697;146;857702;-64
2022/05/24 09:21:47;;;;;;;5.70;1.65;;;;;;;;;;361401;146;858269;-64
2022/05/24 09:22:48;;;;;;;4.01;1.63;;;;;;;;;;366109;143;857349;-65
2022/05/24 09:23:51;;;;;;;6.79;1.93;;;;;;;;;;365740;144;865985;-64
2022/05/24 09:24:56;;;;;;;4.05;1.54;;;;;;;;;;364905;144;857261;-64
2022/05/24 09:25:59;;;;;;;3.82;1.34;;;;;;;;;;368256;144;859009;-64
2022/05/24 09:27:07;;;;;;;3.47;1.60;;;;;;;;;;368105;144;857316;-65
2022/05/24 09:28:09;;;;;;;2.33;1.61;;;;;;;;;;367228;144;857381;-66
2022/05/24 09:29:11;;;;;;;2.24;1.51;;;;;;;;;;368239;143;857465;-65
2022/05/24 09:30:15;;;;;;;5.37;1.68;;;;;;;;;;367730;144;859573;-64
2022/05/24 09:31:18;;;;;;;3.11;1.46;;;;;;;;;;366824;144;865726;-64
2022/05/24 09:32:20;;;;;;;3.52;1.54;;;;;;;;;;364377;144;857222;-64
2022/05/24 09:33:23;;;;;;;2.41;1.46;;;;;;;;;;364389;143;865365;-64
2022/05/24 09:34:29;;;;;;;2.24;1.46;;;;;;;;;;367422;144;864552;-65
2022/05/24 09:35:30;;;;;;;2.48;1.67;;;;;;;;;;362273;145;857298;-65
2022/05/24 09:36:40;;;;;;;3.84;1.62;;;;;;;;;;365609;144;859321;-64
2022/05/24 09:37:43;;;;;;;3.88;1.42;;;;;;;;;;365288;144;865516;-62
2022/05/24 09:38:45;;;;;;;3.49;1.43;;;;;;;;;;367882;144;858967;-64
2022/05/24 09:39:48;;;;;;;2.74;1.64;;;;;;;;;;365458;144;864475;-64
2022/05/24 09:40:51;;;;;;;2.88;1.75;;;;;;;;;;365743;144;859325;-65
2022/05/24 09:41:54;;;;;;;3.22;1.56;;;;;;;;;;363874;144;857205;-62
2022/05/24 09:42:57;;;;;;;3.97;1.34;;;;;;;;;;368179;144;857522;-62
2022/05/24 09:44:00;;;;;;;2.67;1.38;;;;;;;;;;359151;147;860870;-66
2022/05/24 09:45:15;;;;;;;4.96;1.62;;;;;;;;;;358747;146;857521;-63
2022/05/24 09:46:19;;;;;;;3.16;1.19;;;;;;;;;;365069;144;859887;-64
2022/05/24 09:47:25;;;;;;;5.54;1.68;;;;;;;;;;361246;146;859512;-65
2022/05/24 09:48:28;;;;;;;4.22;1.24;;;;;;;;;;360731;147;859222;-62
2022/05/24 09:49:33;;;;;;;2.59;1.08;;;;;;;;;;366451;143;859010;-64
2022/05/24 09:50:36;;;;;;;2.96;1.27;;;;;;;;;;365544;145;857174;-66
2022/05/24 09:51:39;;;;;;;2.18;1.15;;;;;;;;;;365603;144;858946;-64
2022/05/24 09:52:41;;;;;;;1.47;1.09;;;;;;;;;;366953;143;861432;-65
2022/05/24 09:53:51;;;;;;;4.45;1.34;;;;;;;;;;366589;143;866753;-65
2022/05/24 09:54:54;;;;;;;3.00;1.26;;;;;;;;;;365282;143;859673;-64
2022/05/24 09:55:59;;;;;;;3.47;1.24;;;;;;;;;;367893;145;859121;-65
2022/05/24 09:57:05;;;;;;;2.38;1.17;;;;;;;;;;365760;144;867376;-65
2022/05/24 09:58:21;;;;;;;4.33;1.42;;;;;;;;;;367429;144;857884;-65
2022/05/24 09:59:26;;;;;;;4.64;1.62;;;;;;;;;;367235;144;858986;-65
2022/05/24 10:00:29;;;;;;;2.77;1.29;;;;;;;;;;367486;144;857482;-62
2022/05/24 10:01:40;;;;;;;3.62;1.24;;;;;;;;;;365111;144;857292;-65
2022/05/24 10:02:42;;;;;;;;;;;;;;;;;;369706;144;863738;-66
2022/05/24 10:03:45;;;;;;;2.26;1.31;;;;;;;;;;365424;143;858222;-64
2022/05/24 10:04:46;;;;;;;3.35;1.33;;;;;;;;;;366798;144;857451;-65
2022/05/24 10:06:08;;;;;;;1.36;1.11;;;;;;;;;;366103;143;857810;-66
2022/05/24 10:07:23;;;;;;;2.53;1.29;;;;;;;;;;365507;144;857401;-66
2022/05/24 10:08:25;;;;;;;4.47;1.12;;;;;;;;;;364966;144;857296;-65
2022/05/24 10:09:34;;;;;;;2.21;0.99;;;;;;;;;;367047;144;858811;-63
2022/05/24 10:10:37;;;;;;;3.86;1.32;;;;;;;;;;365332;143;858215;-64
2022/05/24 10:11:52;;;;;;;3.66;1.59;;;;;;;;;;365582;144;857355;-64
2022/05/24 10:12:56;;;;;;;4.94;1.74;;;;;;;;;;365941;145;857147;-64
2022/05/24 10:14:02;;;;;;;3.54;1.29;;;;;;;;;;366287;144;857336;-66
2022/05/24 10:15:12;;;;;;;2.68;1.36;;;;;;;;;;366897;143;858751;-66
2022/05/24 10:16:18;;;;;;;2.61;1.16;;;;;;;;;;365573;144;859038;-65
2022/05/24 10:17:24;;;;;;;3.57;1.62;;;;;;;;;;365725;143;857495;-65
2022/05/24 10:18:40;;;;;;;3.60;1.27;;;;;;;;;;365244;144;858691;-66
2022/05/24 10:19:44;;;;;;;2.52;1.68;;;;;;;;;;366824;144;857223;-65
2022/05/24 10:20:49;;;;;;;2.98;1.14;;;;;;;;;;367848;144;857286;-65
2022/05/24 10:21:58;;;;;;;2.53;1.29;;;;;;;;;;367575;144;859141;-64
2022/05/24 10:23:08;;;;;;;3.54;1.77;;;;;;;;;;368713;144;857362;-64
2022/05/24 10:24:24;;;;;;;2.13;1.15;;;;;;;;;;364904;144;859129;-65
2022/05/24 10:25:33;;;;;;;2.84;1.38;;;;;;;;;;365056;144;857342;-65
2022/05/24 10:26:47;;;;;;;3.39;1.15;;;;;;;;;;366845;144;857269;-65
2022/05/24 10:28:07;;;;;;;1.81;1.11;;;;;;;;;;367799;144;857467;-64
2022/05/24 10:29:24;;;;;;;2.93;1.22;;;;;;;;;;365523;144;857816;-64
2022/05/24 10:30:29;;;;;;;5.69;1.33;;;;;;;;;;367108;143;858383;-65
2022/05/24 10:31:45;;;;;;;2.39;1.19;;;;;;;;;;367833;144;859853;-65
2022/05/24 10:38:48;;;;;;;2.96;1.66;;;;;;;;;;367384;144;857247;-66
2022/05/24 10:40:09;;;;;;;5.99;1.58;;;;;;;;;;373736;139;858192;-64
2022/05/24 10:41:18;;;;;;;5.50;1.49;;;;;;;;;;381930;139;857961;-67
2022/05/24 10:42:34;;;;;;;3.77;1.67;;;;;;;;;;378765;139;857144;-64
2022/05/24 10:43:38;;;;;;;3.54;1.45;;;;;;;;;;378525;139;857293;-62
2022/05/24 10:44:44;;;;;;;3.23;1.49;;;;;;;;;;377136;142;857127;-64